CheckWX is a tool to help pilots better visualize weather data.  It is not intended as a substitute for an official pre-flight weather briefing.

08:30:54 UTC

LZKZ TAF
Košice Airport
Košice, Slovakia (Slovak Republic)
TAF LZKZ 190500Z 1906/2006 36004KT CAVOK BECMG 1907/1909 02014KT TEMPO 1912/1915 02014G24KT

Mar-19@
06:00 UTC

Mar-19 @ 06:00 UTC

Mar-19@
07:00 UTC

Mar-19 @ 07:00 UTC

TAF LZKZ 190500Z 1906/2006 36004KT CAVOK

Expired

Wind
  • 360° at 4 KTS
Conditions
No significant weather
Cloud Levels
  • No significant clouds

Mar-19@
07:00 UTC

Mar-19 @ 07:00 UTC

Mar-20@
06:00 UTC

Mar-20 @ 06:00 UTC

BECMG 1907/1909 02014KT

Becoming

Becoming Conditions expected by Tue, Mar 19, 2019 @ 09:00 UTC

Wind
  • 020° at 14 KTS
Conditions
No significant weather
Cloud Levels
  • No significant clouds

Mar-19@
12:00 UTC

Mar-19 @ 12:00 UTC

Mar-19@
15:00 UTC

Mar-19 @ 15:00 UTC

TEMPO 1912/1915 02014G24KT

Temporary

Temporary Changes expected for less than half the time period

Wind
  • 020° at 14 KTS
  • {Gusting to 24 KTS